Time;durP1;ratioP1;P1;durP2;ratioP2;P2;SDS_P1;SDS_P2;PMS_P1;PMS_P2;Temp;Humidity;BMP_temperature;BMP_pressure;BME280_temperature;BME280_humidity;BME280_pressure;Samples;Min_cycle;Max_cycle;Signal;HPM_P1;HPM_P2
2021/12/24 00:00:19;;;;;;;8.00;6.80;;;5.70;99.90;;;;;;5043835;28;20211;-61
2021/12/24 00:02:46;;;;;;;6.57;5.95;;;5.80;99.90;;;;;;5034870;28;20210;-61
2021/12/24 00:05:15;;;;;;;7.55;5.68;;;5.70;99.90;;;;;;5033996;28;20222;-61
2021/12/24 00:07:42;;;;;;;6.38;5.40;;;5.80;99.90;;;;;;5034147;28;20210;-61
2021/12/24 00:10:10;;;;;;;6.30;5.70;;;5.80;99.90;;;;;;5034152;28;20217;-61
2021/12/24 00:12:44;;;;;;;6.70;5.38;;;5.80;99.90;;;;;;5033807;28;20666;-61
2021/12/24 00:15:30;;;;;;;6.88;6.18;;;5.80;99.90;;;;;;5034462;28;20225;-61
2021/12/24 00:18:05;;;;;;;6.95;5.90;;;5.80;99.90;;;;;;5034558;28;20214;-61
2021/12/24 00:21:31;;;;;;;6.75;6.10;;;5.80;99.90;;;;;;5034029;28;20182;-61
2021/12/24 00:37:13;;;;;;;6.50;5.70;;;5.80;99.90;;;;;;5037748;28;20232;-61
2021/12/24 00:39:48;;;;;;;6.80;5.95;;;5.80;99.90;;;;;;5037767;28;20556;-61
2021/12/24 00:42:15;;;;;;;6.43;5.82;;;5.90;99.90;;;;;;5037811;28;20190;-61
2021/12/24 00:44:42;;;;;;;7.30;6.38;;;5.90;99.90;;;;;;5037768;28;20225;-61
2021/12/24 00:47:09;;;;;;;6.90;6.25;;;5.90;99.90;;;;;;5037400;28;20202;-61
2021/12/24 00:49:36;;;;;;;8.23;6.13;;;5.90;99.90;;;;;;5039360;28;20206;-61
2021/12/24 00:52:19;;;;;;;6.93;6.22;;;5.90;99.90;;;;;;5039240;28;20210;-61
2021/12/24 00:55:05;;;;;;;6.65;6.05;;;5.90;99.90;;;;;;5037128;28;20719;-61
2021/12/24 00:57:33;;;;;;;5.80;5.20;;;5.90;99.90;;;;;;5036979;28;20192;-61
2021/12/24 01:00:01;;;;;;;7.07;6.38;;;5.90;99.90;;;;;;5037212;28;20575;-62
2021/12/24 01:02:28;;;;;;;7.15;6.45;;;5.90;99.90;;;;;;5037122;28;20228;-61
2021/12/24 01:04:55;;;;;;;7.15;6.13;;;5.90;99.90;;;;;;5039274;28;20218;-61
2021/12/24 01:07:22;;;;;;;7.13;6.53;;;6.00;99.90;;;;;;5056438;28;20212;-61
2021/12/24 01:09:51;;;;;;;7.22;6.45;;;6.00;99.90;;;;;;5049091;28;20667;-61
2021/12/24 01:12:18;;;;;;;9.00;7.57;;;6.00;99.90;;;;;;5038314;28;20203;-61
2021/12/24 01:14:47;;;;;;;8.00;7.20;;;6.00;99.90;;;;;;5039459;28;20321;-62
2021/12/24 01:17:27;;;;;;;8.70;6.90;;;6.00;99.90;;;;;;5039425;28;20209;-61
2021/12/24 01:19:58;;;;;;;6.57;5.97;;;6.00;99.90;;;;;;5045261;28;20250;-61
2021/12/24 01:25:22;;;;;;;7.60;6.75;;;6.10;99.90;;;;;;5027400;28;20313;-62
2021/12/24 01:28:13;;;;;;;7.90;7.10;;;6.10;99.90;;;;;;5036322;28;20233;-61
2021/12/24 01:39:05;;;;;;;6.70;6.00;;;6.10;99.90;;;;;;5036248;28;20228;-60
2021/12/24 01:44:22;;;;;;;7.50;6.72;;;6.20;99.90;;;;;;5025173;28;20357;-60
2021/12/24 01:46:49;;;;;;;7.47;6.78;;;6.20;99.90;;;;;;5035940;28;20186;-61
2021/12/24 01:49:16;;;;;;;7.13;6.43;;;6.20;99.90;;;;;;5036769;28;20705;-61
2021/12/24 01:51:43;;;;;;;7.07;6.38;;;6.20;99.90;;;;;;5037047;28;20202;-61
2021/12/24 01:54:11;;;;;;;5.85;5.25;;;6.20;99.90;;;;;;5035658;28;20234;-61
2021/12/24 01:56:40;;;;;;;5.68;5.18;;;6.20;99.90;;;;;;5035608;28;20202;-62
2021/12/24 01:59:07;;;;;;;5.40;4.90;;;6.30;99.90;;;;;;5035866;28;20209;-61
2021/12/24 02:01:34;;;;;;;5.18;4.68;;;6.30;99.90;;;;;;5035733;28;20198;-61
2021/12/24 02:04:02;;;;;;;6.32;5.65;;;6.30;99.90;;;;;;5035602;28;20226;-61
2021/12/24 02:06:29;;;;;;;4.72;4.25;;;6.30;99.90;;;;;;5035555;28;20206;-61
2021/12/24 02:08:56;;;;;;;6.07;5.47;;;6.30;99.90;;;;;;5035161;28;20620;-61
2021/12/24 02:11:24;;;;;;;5.90;5.30;;;6.40;99.90;;;;;;5035070;28;20674;-61
2021/12/24 02:13:53;;;;;;;5.75;5.15;;;6.40;99.90;;;;;;5035042;28;20695;-61
2021/12/24 02:16:35;;;;;;;5.43;4.68;;;6.40;99.90;;;;;;5035070;28;20663;-61
2021/12/24 02:30:03;;;;;;;4.47;4.00;;;6.40;99.90;;;;;;5035203;28;20206;-62
2021/12/24 02:32:30;;;;;;;5.03;3.75;;;6.40;99.90;;;;;;5035087;28;20697;-61
2021/12/24 02:34:57;;;;;;;3.92;3.40;;;6.40;99.90;;;;;;5034994;28;20583;-61
2021/12/24 02:37:26;;;;;;;4.25;3.25;;;6.40;99.90;;;;;;5034855;28;20206;-60
2021/12/24 02:39:54;;;;;;;5.20;4.15;;;6.40;99.90;;;;;;5034948;28;20202;-61
2021/12/24 02:42:23;;;;;;;5.10;3.00;;;6.40;99.90;;;;;;5034637;28;20584;-61
2021/12/24 02:44:52;;;;;;;4.47;3.47;;;6.40;99.90;;;;;;5034853;28;20226;-62
2021/12/24 02:47:39;;;;;;;3.47;3.17;;;6.40;99.90;;;;;;5034234;28;20214;-61
2021/12/24 02:55:37;;;;;;;4.57;3.58;;;6.50;99.90;;;;;;5034640;28;20225;-61
2021/12/24 02:58:04;;;;;;;3.97;3.58;;;6.50;99.90;;;;;;5034850;28;20213;-62
2021/12/24 03:00:32;;;;;;;3.50;3.10;;;6.50;99.90;;;;;;5034709;28;20206;-62
2021/12/24 03:02:59;;;;;;;3.70;3.30;;;6.50;99.90;;;;;;5034510;28;20210;-61
2021/12/24 03:05:26;;;;;;;3.50;3.20;;;6.60;99.90;;;;;;5034314;28;20226;-61
2021/12/24 03:07:55;;;;;;;3.65;3.35;;;6.60;99.90;;;;;;5034448;28;20686;-62
2021/12/24 03:10:22;;;;;;;3.08;2.88;;;6.60;99.90;;;;;;5034849;28;20675;-61
2021/12/24 03:12:52;;;;;;;3.30;3.00;;;6.60;99.90;;;;;;5034472;28;20206;-61
2021/12/24 03:15:22;;;;;;;3.67;3.30;;;6.60;99.90;;;;;;5033681;28;20218;-62
2021/12/24 03:17:53;;;;;;;5.38;3.20;;;6.60;99.90;;;;;;5034346;28;20195;-61
2021/12/24 03:20:21;;;;;;;4.00;3.60;;;6.60;99.90;;;;;;5035068;28;20187;-61
2021/12/24 03:23:03;;;;;;;3.78;3.47;;;6.60;99.90;;;;;;5033828;28;20570;-61
2021/12/24 03:25:31;;;;;;;3.72;3.42;;;6.60;99.90;;;;;;5033541;28;20713;-60
2021/12/24 03:27:58;;;;;;;3.53;3.22;;;6.70;99.90;;;;;;5034206;28;20662;-61
2021/12/24 03:30:26;;;;;;;3.60;3.25;;;6.70;99.90;;;;;;5033787;28;20202;-62
2021/12/24 03:32:53;;;;;;;3.72;3.30;;;6.70;99.90;;;;;;5034073;28;20206;-62
2021/12/24 03:35:21;;;;;;;4.47;4.07;;;6.70;99.90;;;;;;5033825;28;20233;-62
2021/12/24 03:37:48;;;;;;;3.95;3.63;;;6.70;99.90;;;;;;5033870;28;20569;-62
2021/12/24 03:40:15;;;;;;;3.70;3.40;;;6.70;99.90;;;;;;5033960;28;20205;-62
2021/12/24 03:42:44;;;;;;;3.70;3.38;;;6.70;99.90;;;;;;5033824;28;20213;-61
2021/12/24 03:45:22;;;;;;;4.00;3.70;;;6.80;99.90;;;;;;5033700;28;20327;-62
2021/12/24 03:47:56;;;;;;;4.60;4.10;;;6.80;99.90;;;;;;5033780;28;20245;-61
2021/12/24 03:50:26;;;;;;;5.10;4.30;;;6.80;99.90;;;;;;5033740;28;20193;-61
2021/12/24 03:53:04;;;;;;;5.97;3.78;;;6.80;99.90;;;;;;5033626;28;20214;-62
2021/12/24 03:55:30;;;;;;;4.40;4.00;;;6.80;99.90;;;;;;5033467;28;20253;-61
2021/12/24 03:57:59;;;;;;;6.00;4.50;;;6.90;99.90;;;;;;5033600;28;20264;-62
2021/12/24 04:00:28;;;;;;;4.72;4.32;;;6.90;99.90;;;;;;5033013;28;20198;-61
2021/12/24 04:02:55;;;;;;;5.05;4.65;;;6.90;99.90;;;;;;5033795;28;20202;-61
2021/12/24 04:05:23;;;;;;;4.82;4.32;;;6.90;99.90;;;;;;5033152;28;20615;-62
2021/12/24 04:09:07;;;;;;;4.85;4.30;;;6.90;99.90;;;;;;5133273;27;20566;-61
2021/12/24 04:11:35;;;;;;;4.45;4.05;;;6.90;99.90;;;;;;5132969;28;20191;-61
2021/12/24 04:14:02;;;;;;;5.07;4.57;;;6.90;99.90;;;;;;5132501;28;20624;-61
2021/12/24 04:16:29;;;;;;;5.43;4.93;;;6.90;99.90;;;;;;5132351;28;20556;-61
2021/12/24 04:19:14;;;;;;;5.10;4.60;;;7.00;99.90;;;;;;5133543;28;20244;-63
2021/12/24 04:27:21;;;;;;;5.75;4.50;;;7.00;99.90;;;;;;5011419;28;20362;-56
2021/12/24 04:29:48;;;;;;;6.40;5.00;;;7.00;99.90;;;;;;5070121;28;20677;-56
2021/12/24 04:32:18;;;;;;;5.80;5.20;;;7.10;99.90;;;;;;5070021;28;20597;-55
2021/12/24 04:34:49;;;;;;;4.45;4.05;;;7.10;99.90;;;;;;5070264;28;20193;-55
2021/12/24 04:51:14;;;;;;;4.35;3.95;;;7.20;99.90;;;;;;5069769;28;20184;-55
2021/12/24 05:02:09;;;;;;;4.00;3.60;;;7.30;99.90;;;;;;5069833;28;20223;-57
2021/12/24 05:04:47;;;;;;;4.40;4.00;;;7.30;99.90;;;;;;5070283;28;20185;-55
2021/12/24 05:07:31;;;;;;;5.18;4.40;;;7.30;99.90;;;;;;5070466;28;20240;-56
2021/12/24 05:09:58;;;;;;;4.32;3.70;;;7.40;99.90;;;;;;5069755;28;20186;-56
2021/12/24 05:12:29;;;;;;;5.88;4.65;;;7.40;99.90;;;;;;5070242;28;20229;-56
2021/12/24 05:14:57;;;;;;;6.30;4.60;;;7.40;99.90;;;;;;5069826;28;20660;-56
2021/12/24 05:17:31;;;;;;;4.10;3.70;;;7.40;99.90;;;;;;5070495;28;20202;-56
2021/12/24 05:22:42;;;;;;;11.90;4.95;;;7.40;99.90;;;;;;5056479;28;20228;-56
2021/12/24 05:25:10;;;;;;;5.35;4.85;;;7.50;99.90;;;;;;5056479;28;20213;-56
2021/12/24 05:27:38;;;;;;;6.80;5.43;;;7.50;99.90;;;;;;5055881;28;20221;-56
2021/12/24 05:30:06;;;;;;;7.20;5.75;;;7.50;99.90;;;;;;5056157;28;20227;-56
2021/12/24 05:32:33;;;;;;;6.05;5.10;;;7.60;99.90;;;;;;5056713;28;20600;-55
2021/12/24 05:35:00;;;;;;;6.57;5.75;;;7.60;99.90;;;;;;5056034;28;20212;-55
2021/12/24 05:37:27;;;;;;;7.43;6.18;;;7.60;99.90;;;;;;5056723;28;20198;-55
2021/12/24 05:39:54;;;;;;;9.13;6.88;;;7.60;99.90;;;;;;5055869;28;20202;-56
2021/12/24 05:42:23;;;;;;;7.60;6.40;;;7.70;99.90;;;;;;5055298;28;20226;-56
2021/12/24 05:44:52;;;;;;;7.95;6.63;;;7.70;99.90;;;;;;5055285;28;20674;-56
2021/12/24 05:47:19;;;;;;;11.55;7.93;;;7.70;99.90;;;;;;5055149;28;20228;-56
2021/12/24 05:49:46;;;;;;;9.02;7.93;;;7.80;99.90;;;;;;5055350;28;20209;-56
2021/12/24 05:52:13;;;;;;;9.57;8.32;;;7.80;99.90;;;;;;5055287;28;20225;-56
2021/12/24 05:54:40;;;;;;;11.48;8.88;;;7.80;99.90;;;;;;5055727;28;20197;-56
2021/12/24 05:57:07;;;;;;;11.95;8.10;;;7.80;99.90;;;;;;5055546;28;20217;-56
2021/12/24 05:59:34;;;;;;;9.77;8.30;;;7.80;99.90;;;;;;5054930;28;20205;-55
2021/12/24 06:02:03;;;;;;;11.05;8.60;;;7.80;99.90;;;;;;5055046;28;20321;-56
2021/12/24 06:04:30;;;;;;;9.75;8.55;;;7.90;99.90;;;;;;5054886;28;20201;-56
2021/12/24 06:06:58;;;;;;;12.90;8.60;;;7.90;99.90;;;;;;5055118;28;20206;-56
2021/12/24 06:09:25;;;;;;;13.15;9.88;;;7.90;99.90;;;;;;5054690;28;20225;-56
2021/12/24 06:11:53;;;;;;;12.95;10.38;;;7.90;99.90;;;;;;5054859;28;20240;-57
2021/12/24 06:14:20;;;;;;;12.35;9.52;;;8.00;99.90;;;;;;5054472;28;20205;-56
2021/12/24 06:16:50;;;;;;;13.65;9.45;;;8.00;99.90;;;;;;5054545;28;20197;-56
2021/12/24 06:19:20;;;;;;;15.93;10.45;;;8.00;99.90;;;;;;5055732;28;20198;-56
2021/12/24 06:21:47;;;;;;;13.60;10.10;;;8.00;99.90;;;;;;5054586;28;20699;-56
2021/12/24 06:24:14;;;;;;;13.18;10.13;;;8.10;99.90;;;;;;5054691;28;20289;-56
2021/12/24 06:26:41;;;;;;;17.98;10.70;;;8.10;99.90;;;;;;5054710;28;20224;-56
2021/12/24 06:29:09;;;;;;;14.88;9.70;;;8.10;99.90;;;;;;5054285;28;20222;-56
2021/12/24 06:31:36;;;;;;;15.65;10.88;;;8.10;99.90;;;;;;5053171;28;20236;-57
2021/12/24 06:34:03;;;;;;;13.48;9.88;;;8.10;99.90;;;;;;5054529;28;20206;-56
2021/12/24 06:36:34;;;;;;;10.32;7.80;;;8.20;99.90;;;;;;5054476;28;20202;-56
2021/12/24 06:39:02;;;;;;;12.50;9.45;;;8.20;99.90;;;;;;5054541;28;20217;-56
2021/12/24 06:41:29;;;;;;;13.52;10.00;;;8.20;99.90;;;;;;5054364;28;20229;-56
2021/12/24 06:43:56;;;;;;;10.73;9.00;;;8.20;99.90;;;;;;5054458;28;20217;-56
2021/12/24 06:46:23;;;;;;;10.60;8.57;;;8.20;99.90;;;;;;5054307;28;20201;-56
2021/12/24 06:48:56;;;;;;;10.57;8.52;;;8.20;99.90;;;;;;5054285;28;20229;-56
2021/12/24 06:51:23;;;;;;;10.02;8.45;;;8.30;99.90;;;;;;5054242;28;20217;-57
2021/12/24 06:53:51;;;;;;;10.48;8.00;;;8.30;99.90;;;;;;5053876;28;20201;-56
2021/12/24 06:56:18;;;;;;;9.73;7.45;;;8.30;99.90;;;;;;5053935;28;20206;-56
2021/12/24 06:58:46;;;;;;;9.48;7.80;;;8.30;99.90;;;;;;5054129;28;20209;-56
2021/12/24 07:01:13;;;;;;;10.23;9.23;;;8.30;99.90;;;;;;5053791;28;20238;-56
2021/12/24 07:03:41;;;;;;;11.70;8.55;;;8.30;99.90;;;;;;5054190;28;20259;-56
2021/12/24 07:06:09;;;;;;;12.18;8.30;;;8.30;99.90;;;;;;5053982;28;20204;-56
2021/12/24 07:08:36;;;;;;;13.15;9.30;;;8.30;99.90;;;;;;5053920;28;20597;-56
2021/12/24 07:11:05;;;;;;;12.27;9.05;;;8.40;99.90;;;;;;5053829;28;20205;-56
2021/12/24 07:13:32;;;;;;;10.55;8.45;;;8.30;99.90;;;;;;5053846;28;20228;-56
2021/12/24 07:15:59;;;;;;;10.10;7.65;;;8.40;99.90;;;;;;5053741;28;20210;-56
2021/12/24 07:18:26;;;;;;;11.18;9.52;;;8.40;99.90;;;;;;5053529;28;20700;-56
2021/12/24 07:20:53;;;;;;;10.30;8.45;;;8.40;99.90;;;;;;5053432;28;20209;-56
2021/12/24 07:23:20;;;;;;;13.10;9.55;;;8.30;99.90;;;;;;5053679;28;20206;-55
2021/12/24 07:25:47;;;;;;;11.77;8.90;;;8.40;99.90;;;;;;5053383;28;20202;-55
2021/12/24 07:28:16;;;;;;;10.10;8.20;;;8.40;99.90;;;;;;5053633;28;20229;-55
2021/12/24 07:30:43;;;;;;;12.38;9.13;;;8.40;99.90;;;;;;5053279;28;20204;-56
2021/12/24 07:33:14;;;;;;;11.63;8.77;;;8.30;99.90;;;;;;5053158;28;20713;-55
2021/12/24 07:35:42;;;;;;;11.60;9.00;;;8.40;99.90;;;;;;5054063;28;20261;-55
2021/12/24 07:38:09;;;;;;;11.05;7.80;;;8.40;99.90;;;;;;5053119;28;20229;-55
2021/12/24 07:40:38;;;;;;;12.60;8.25;;;8.40;99.90;;;;;;5053148;28;20197;-55
2021/12/24 07:43:05;;;;;;;11.98;8.43;;;8.40;99.90;;;;;;5052665;28;20732;-55
2021/12/24 07:45:34;;;;;;;11.40;9.50;;;8.40;99.90;;;;;;5053022;28;20227;-55
2021/12/24 07:48:11;;;;;;;13.93;10.77;;;8.40;99.90;;;;;;5053288;28;20571;-55
2021/12/24 07:53:23;;;;;;;12.90;10.60;;;8.40;99.90;;;;;;5053254;28;20657;-57
2021/12/24 07:55:51;;;;;;;14.10;9.55;;;8.40;99.90;;;;;;5053363;28;20201;-57
2021/12/24 07:58:18;;;;;;;11.52;8.93;;;8.40;99.90;;;;;;5053072;28;20197;-55
2021/12/24 08:00:47;;;;;;;15.30;10.70;;;8.40;99.90;;;;;;5053043;28;20202;-56
2021/12/24 08:03:15;;;;;;;14.10;10.00;;;8.40;99.90;;;;;;5052845;28;20827;-55
2021/12/24 08:05:42;;;;;;;14.52;9.95;;;8.40;99.90;;;;;;5053253;28;20206;-55
2021/12/24 08:08:11;;;;;;;13.75;9.45;;;8.40;99.90;;;;;;5052862;28;20225;-55
2021/12/24 08:10:41;;;;;;;15.70;10.75;;;8.40;99.90;;;;;;5052794;28;20654;-55
2021/12/24 08:13:09;;;;;;;13.35;9.93;;;8.40;99.90;;;;;;5053040;28;20328;-55
2021/12/24 08:15:36;;;;;;;16.55;12.00;;;8.40;99.90;;;;;;5052926;28;20235;-55
2021/12/24 08:18:05;;;;;;;14.65;11.15;;;8.40;99.90;;;;;;5052949;28;20224;-56
2021/12/24 08:20:32;;;;;;;14.90;10.85;;;8.40;99.90;;;;;;5053617;28;20201;-56
2021/12/24 08:22:59;;;;;;;16.40;11.93;;;8.40;99.90;;;;;;5052635;28;20229;-55
2021/12/24 08:25:27;;;;;;;17.58;12.30;;;8.40;99.90;;;;;;5053233;28;20212;-55
2021/12/24 08:27:55;;;;;;;17.17;11.18;;;8.40;99.90;;;;;;5053163;28;20210;-55
2021/12/24 08:30:22;;;;;;;15.32;10.52;;;8.50;99.90;;;;;;5053342;28;20206;-56
2021/12/24 08:32:49;;;;;;;15.80;12.30;;;8.40;99.90;;;;;;5052628;28;20704;-55
2021/12/24 08:35:21;;;;;;;15.30;12.13;;;8.40;99.90;;;;;;5054067;28;20313;-55
2021/12/24 08:37:49;;;;;;;17.65;11.88;;;8.50;99.90;;;;;;5053628;28;20197;-55
2021/12/24 08:40:16;;;;;;;16.95;12.90;;;8.50;99.90;;;;;;5052453;28;20193;-55
2021/12/24 08:42:43;;;;;;;19.02;13.25;;;8.50;99.90;;;;;;5052407;28;20221;-55
2021/12/24 08:45:11;;;;;;;17.05;12.30;;;8.40;99.90;;;;;;5052261;28;20696;-57
2021/12/24 08:47:38;;;;;;;16.80;12.43;;;8.40;99.90;;;;;;5052744;28;20209;-55
2021/12/24 08:50:07;;;;;;;16.17;11.48;;;8.50;99.90;;;;;;5052604;28;20251;-56
2021/12/24 08:52:36;;;;;;;19.55;13.65;;;8.50;99.90;;;;;;5052410;28;20218;-56
2021/12/24 08:55:04;;;;;;;19.48;13.38;;;8.50;99.90;;;;;;5054812;28;20610;-56
2021/12/24 08:57:31;;;;;;;16.45;11.50;;;8.50;99.90;;;;;;5056194;28;20205;-55
2021/12/24 08:59:58;;;;;;;15.48;11.95;;;8.40;99.90;;;;;;5056120;28;20209;-55
2021/12/24 09:02:25;;;;;;;19.23;13.20;;;8.50;99.90;;;;;;5056234;28;20225;-57
2021/12/24 09:04:52;;;;;;;20.17;10.57;;;8.40;99.90;;;;;;5055998;28;20213;-57
2021/12/24 09:07:19;;;;;;;16.88;11.82;;;8.50;99.90;;;;;;5056281;28;20210;-56
2021/12/24 09:09:47;;;;;;;18.58;12.70;;;8.50;99.90;;;;;;5056203;28;20217;-56
2021/12/24 09:12:14;;;;;;;13.90;9.95;;;8.50;99.90;;;;;;5055778;28;20586;-55
2021/12/24 09:14:41;;;;;;;16.95;12.35;;;8.50;99.90;;;;;;5055907;28;20209;-57
2021/12/24 09:17:08;;;;;;;15.57;11.65;;;8.50;99.90;;;;;;5055930;28;20208;-57
2021/12/24 09:19:37;;;;;;;18.23;12.15;;;8.50;99.90;;;;;;5056080;28;20205;-57
2021/12/24 09:22:05;;;;;;;15.07;11.57;;;8.60;99.90;;;;;;5055482;28;20229;-57
2021/12/24 09:24:32;;;;;;;19.35;12.10;;;8.60;99.90;;;;;;5056839;28;20224;-56
2021/12/24 09:27:00;;;;;;;13.77;10.57;;;8.60;99.90;;;;;;5055594;28;20670;-57
2021/12/24 09:29:28;;;;;;;16.17;10.50;;;8.60;99.90;;;;;;5055868;28;20225;-57
2021/12/24 09:31:56;;;;;;;17.13;12.05;;;8.60;99.90;;;;;;5055469;28;20709;-57
2021/12/24 09:34:23;;;;;;;14.55;11.15;;;8.60;99.90;;;;;;5055683;28;20198;-56
2021/12/24 09:36:50;;;;;;;15.60;10.80;;;8.70;99.90;;;;;;5055821;28;20232;-57
2021/12/24 09:39:18;;;;;;;12.63;10.40;;;8.60;99.90;;;;;;5055712;28;20229;-57
2021/12/24 09:41:45;;;;;;;17.83;10.05;;;8.60;99.90;;;;;;5055460;28;20222;-57
2021/12/24 09:44:15;;;;;;;12.52;10.45;;;8.70;99.90;;;;;;5055475;28;20209;-57
2021/12/24 09:46:43;;;;;;;14.70;9.15;;;8.70;99.90;;;;;;5055167;28;20553;-57
2021/12/24 09:49:10;;;;;;;16.90;11.10;;;8.70;99.90;;;;;;5055468;28;20225;-56
2021/12/24 09:51:41;;;;;;;12.40;10.45;;;8.70;99.90;;;;;;5055374;28;20233;-57
2021/12/24 09:54:12;;;;;;;12.50;9.35;;;8.70;99.90;;;;;;5055471;28;20186;-57
2021/12/24 09:56:39;;;;;;;10.80;9.13;;;8.70;99.90;;;;;;5055019;28;20190;-57
2021/12/24 09:59:06;;;;;;;11.85;8.70;;;8.70;99.90;;;;;;5054955;28;20202;-57
2021/12/24 10:01:38;;;;;;;14.70;10.15;;;8.70;99.90;;;;;;5054676;28;20254;-57
2021/12/24 10:04:09;;;;;;;9.60;8.60;;;8.80;99.90;;;;;;5054706;28;20190;-57
2021/12/24 10:06:37;;;;;;;9.05;8.13;;;8.80;99.90;;;;;;5054972;28;20189;-57
2021/12/24 10:09:08;;;;;;;9.30;5.65;;;8.80;99.90;;;;;;5054995;28;20248;-57
2021/12/24 10:11:48;;;;;;;9.95;7.65;;;8.90;99.90;;;;;;5054953;28;20225;-57
2021/12/24 10:14:16;;;;;;;11.20;8.40;;;8.90;99.90;;;;;;5055015;28;20186;-56
2021/12/24 10:16:47;;;;;;;8.85;7.82;;;8.90;99.90;;;;;;5055007;28;20672;-56
2021/12/24 10:19:15;;;;;;;11.10;7.55;;;8.90;99.90;;;;;;5055172;28;20621;-56
2021/12/24 10:21:44;;;;;;;9.48;7.13;;;9.00;99.90;;;;;;5074455;22;20217;-61
2021/12/24 10:24:16;;;;;;;9.27;7.57;;;8.90;99.90;;;;;;5115334;28;20687;-61
2021/12/24 10:26:48;;;;;;;10.15;8.20;;;8.90;99.90;;;;;;5115395;28;20204;-61
2021/12/24 10:29:17;;;;;;;10.10;7.47;;;8.90;99.90;;;;;;5115473;28;20204;-62
2021/12/24 10:31:48;;;;;;;9.77;6.50;;;8.90;99.90;;;;;;5115099;28;20227;-61
2021/12/24 10:34:24;;;;;;;11.70;6.97;;;8.90;99.90;;;;;;5115198;28;20210;-61
2021/12/24 10:37:03;;;;;;;9.05;6.50;;;8.90;99.90;;;;;;5115202;28;20759;-62
2021/12/24 10:39:34;;;;;;;6.38;5.68;;;8.90;99.90;;;;;;5115223;28;20179;-61
2021/12/24 10:42:04;;;;;;;8.57;7.22;;;9.00;99.90;;;;;;5114847;28;20227;-62
2021/12/24 10:44:33;;;;;;;8.02;5.50;;;9.10;99.90;;;;;;5115286;28;20212;-61
2021/12/24 10:47:05;;;;;;;11.18;6.78;;;9.10;99.90;;;;;;5116257;28;20550;-60
2021/12/24 10:49:54;;;;;;;7.40;5.93;;;9.20;99.90;;;;;;5116556;28;20216;-61
2021/12/24 10:55:11;;;;;;;9.55;5.90;;;9.30;99.90;;;;;;5116064;28;20245;-62
2021/12/24 10:57:40;;;;;;;7.57;5.53;;;9.30;99.90;;;;;;5115852;28;20204;-62
2021/12/24 11:00:15;;;;;;;6.30;5.10;;;9.30;99.90;;;;;;5114502;28;20195;-61
2021/12/24 11:02:43;;;;;;;5.20;4.70;;;9.30;99.90;;;;;;5114488;28;20230;-61
2021/12/24 11:05:34;;;;;;;5.65;4.55;;;9.30;99.90;;;;;;5114384;28;20203;-62
2021/12/24 11:08:03;;;;;;;5.45;4.65;;;9.30;99.90;;;;;;5114049;28;20190;-62
2021/12/24 11:10:33;;;;;;;5.88;4.70;;;9.30;99.90;;;;;;5114025;28;20226;-62
2021/12/24 11:13:07;;;;;;;5.90;4.95;;;9.30;99.90;;;;;;5114213;28;20226;-62
2021/12/24 11:15:37;;;;;;;5.72;5.07;;;9.40;99.90;;;;;;5114135;28;20658;-62
2021/12/24 11:18:07;;;;;;;7.68;5.20;;;9.40;99.90;;;;;;5113767;28;20618;-62
2021/12/24 11:20:35;;;;;;;7.38;5.50;;;9.30;99.90;;;;;;5114342;28;20180;-61
2021/12/24 11:23:06;;;;;;;6.75;5.28;;;9.30;99.90;;;;;;5113796;28;20227;-61
2021/12/24 11:25:35;;;;;;;7.50;6.43;;;9.20;99.90;;;;;;5114346;28;20180;-61
2021/12/24 11:28:03;;;;;;;7.75;5.55;;;9.20;99.90;;;;;;5114179;28;20214;-62
2021/12/24 11:30:32;;;;;;;11.38;7.07;;;9.20;99.90;;;;;;5113802;28;20243;-61
2021/12/24 11:32:59;;;;;;;7.43;5.95;;;9.10;99.90;;;;;;5114087;28;20219;-61
2021/12/24 11:35:30;;;;;;;7.68;5.57;;;9.10;99.90;;;;;;5114061;28;20204;-62
2021/12/24 11:37:59;;;;;;;11.25;6.70;;;9.10;99.90;;;;;;5117286;28;20203;-64
2021/12/24 11:40:28;;;;;;;8.82;6.75;;;9.00;99.90;;;;;;5117284;28;20196;-62
2021/12/24 11:42:59;;;;;;;9.50;6.35;;;9.00;99.90;;;;;;5114517;28;20215;-61
2021/12/24 11:45:28;;;;;;;10.38;6.60;;;9.00;99.90;;;;;;5113560;28;20188;-61
2021/12/24 11:47:55;;;;;;;8.40;5.85;;;8.90;99.90;;;;;;5113637;28;20200;-62
2021/12/24 11:50:24;;;;;;;4.95;4.15;;;8.90;99.90;;;;;;5113636;28;20222;-62
2021/12/24 11:52:55;;;;;;;1.80;1.42;;;8.80;99.90;;;;;;5113757;28;20226;-62
2021/12/24 11:55:25;;;;;;;1.85;1.40;;;8.40;99.90;;;;;;5113335;28;20238;-63
2021/12/24 11:57:54;;;;;;;4.40;0.95;;;7.80;99.90;;;;;;5113777;28;20659;-61
2021/12/24 12:00:25;;;;;;;2.42;1.15;;;7.30;99.90;;;;;;5113460;28;20199;-61
2021/12/24 12:02:53;;;;;;;1.65;0.80;;;7.00;99.90;;;;;;5113472;28;20231;-61
2021/12/24 12:05:26;;;;;;;0.80;0.80;;;6.80;99.90;;;;;;5113845;28;20570;-63
2021/12/24 12:08:38;;;;;;;4.63;1.83;;;6.60;99.90;;;;;;5113877;28;20184;-62
2021/12/24 12:11:18;;;;;;;1.50;0.90;;;6.40;99.90;;;;;;5113788;28;20272;-60
2021/12/24 12:13:54;;;;;;;1.02;0.95;;;6.30;99.90;;;;;;5113311;28;20223;-61
2021/12/24 12:16:23;;;;;;;1.13;1.05;;;6.10;99.90;;;;;;5113382;28;20188;-62
2021/12/24 12:19:02;;;;;;;1.50;1.40;;;6.10;99.90;;;;;;5113698;28;20199;-62
2021/12/24 12:21:40;;;;;;;1.77;1.30;;;6.00;99.90;;;;;;5113331;28;20274;-62
2021/12/24 12:27:00;;;;;;;0.70;0.70;;;5.80;99.90;;;;;;5093042;28;20199;-62
2021/12/24 12:29:44;;;;;;;0.70;0.70;;;5.70;99.90;;;;;;5114977;28;20245;-61
2021/12/24 12:32:40;;;;;;;1.48;0.80;;;5.60;99.90;;;;;;5117568;28;20251;-62
2021/12/24 12:35:07;;;;;;;1.30;0.70;;;5.40;99.90;;;;;;5117174;28;20219;-62
2021/12/24 12:37:44;;;;;;;1.08;0.98;;;5.30;99.90;;;;;;5117486;28;20222;-61
2021/12/24 12:40:31;;;;;;;1.10;1.00;;;5.10;99.90;;;;;;5117130;28;20212;-62
2021/12/24 12:43:07;;;;;;;1.38;1.27;;;5.10;99.90;;;;;;5117318;28;20227;-61
2021/12/24 12:46:00;;;;;;;0.60;0.60;;;5.00;99.90;;;;;;5117271;28;20184;-61
2021/12/24 12:48:50;;;;;;;0.80;0.80;;;4.90;99.90;;;;;;5117344;28;20184;-61
2021/12/24 12:51:20;;;;;;;1.50;1.40;;;4.90;99.90;;;;;;5117143;28;20261;-63
2021/12/24 12:53:50;;;;;;;1.52;1.13;;;4.90;99.90;;;;;;5117068;28;20200;-62
2021/12/24 12:56:22;;;;;;;1.80;1.45;;;4.90;99.90;;;;;;5116996;28;20662;-62
2021/12/24 12:58:58;;;;;;;1.42;1.10;;;4.90;99.90;;;;;;5116865;28;20196;-62
2021/12/24 13:01:26;;;;;;;1.35;1.10;;;4.80;99.90;;;;;;5117199;28;20180;-62
2021/12/24 13:04:14;;;;;;;1.20;1.10;;;4.70;99.90;;;;;;5117061;28;20196;-61
2021/12/24 13:06:58;;;;;;;1.40;1.30;;;4.70;99.90;;;;;;5109791;28;20207;-62
2021/12/24 13:09:32;;;;;;;1.45;1.23;;;4.60;99.90;;;;;;5117557;28;20201;-62
2021/12/24 13:12:01;;;;;;;2.42;1.58;;;4.50;99.90;;;;;;5119326;28;20267;-62
2021/12/24 13:14:31;;;;;;;2.28;1.30;;;4.50;99.90;;;;;;5118707;28;20265;-62
2021/12/24 13:17:17;;;;;;;1.30;1.20;;;4.50;99.90;;;;;;5117690;28;20199;-64
2021/12/24 13:20:09;;;;;;;1.45;1.35;;;4.40;99.90;;;;;;5118683;28;20275;-62
2021/12/24 13:22:37;;;;;;;1.40;1.30;;;4.30;99.90;;;;;;5117805;28;20314;-64
2021/12/24 13:25:10;;;;;;;1.58;1.48;;;4.30;99.90;;;;;;5117256;28;20282;-62
2021/12/24 13:27:39;;;;;;;2.78;1.83;;;4.30;99.90;;;;;;5117061;28;20253;-62
2021/12/24 13:30:26;;;;;;;1.75;1.63;;;4.30;99.90;;;;;;5116779;28;20255;-62
2021/12/24 13:32:59;;;;;;;1.88;1.75;;;4.30;99.90;;;;;;5117393;28;20223;-61
2021/12/24 13:35:28;;;;;;;1.73;1.45;;;4.20;99.90;;;;;;5117073;28;20188;-61
2021/12/24 13:37:56;;;;;;;2.67;1.90;;;4.20;99.90;;;;;;5116646;28;20528;-61
2021/12/24 13:40:26;;;;;;;1.95;1.85;;;4.20;99.90;;;;;;5116425;28;20203;-62
2021/12/24 13:42:54;;;;;;;1.80;1.70;;;4.20;99.90;;;;;;5117102;28;20231;-62
2021/12/24 13:45:23;;;;;;;2.13;1.98;;;4.10;99.90;;;;;;5117811;28;20551;-62
2021/12/24 13:48:00;;;;;;;1.60;1.50;;;4.00;99.90;;;;;;5116086;28;20559;-62
2021/12/24 13:56:39;;;;;;;2.42;2.22;;;3.80;99.90;;;;;;5033348;28;20241;-62
2021/12/24 13:59:07;;;;;;;1.65;1.55;;;3.60;99.90;;;;;;5102233;28;20199;-61
2021/12/24 14:01:35;;;;;;;2.08;1.70;;;3.60;99.90;;;;;;5115667;28;20693;-62
2021/12/24 14:04:05;;;;;;;1.70;1.60;;;3.50;99.90;;;;;;5119148;28;20701;-61
2021/12/24 14:06:35;;;;;;;2.10;1.90;;;3.50;99.90;;;;;;5120680;28;20195;-62
2021/12/24 14:09:09;;;;;;;1.85;1.75;;;3.50;99.90;;;;;;5118619;28;20214;-61
2021/12/24 14:11:37;;;;;;;1.75;1.65;;;3.40;99.90;;;;;;5118349;28;20218;-61
2021/12/24 14:14:09;;;;;;;1.95;1.80;;;3.30;99.90;;;;;;5122112;28;20196;-61
2021/12/24 14:16:51;;;;;;;1.55;1.40;;;3.20;99.90;;;;;;5117452;28;20192;-61
2021/12/24 14:19:30;;;;;;;1.50;1.40;;;3.10;99.90;;;;;;5116409;28;20263;-61
2021/12/24 14:22:07;;;;;;;1.92;1.80;;;3.10;99.90;;;;;;5116003;28;20284;-61
2021/12/24 14:24:36;;;;;;;2.05;1.85;;;2.90;99.90;;;;;;5115786;28;20180;-61
2021/12/24 14:27:06;;;;;;;1.60;1.50;;;2.90;99.90;;;;;;5115315;28;20294;-61
2021/12/24 14:29:39;;;;;;;2.22;2.03;;;2.80;99.90;;;;;;5115244;28;20667;-61
2021/12/24 14:32:09;;;;;;;3.05;2.80;;;2.70;99.90;;;;;;5115389;28;20215;-61
2021/12/24 14:34:49;;;;;;;1.80;1.70;;;2.60;99.90;;;;;;5114961;28;20200;-61
2021/12/24 14:37:22;;;;;;;1.80;1.70;;;2.60;99.90;;;;;;5115361;28;20208;-61
2021/12/24 14:39:52;;;;;;;2.25;2.05;;;2.50;99.90;;;;;;5114973;28;20188;-61